sensor_id;sensor_type;location;lat;lon;timestamp;temperature;humidity
74792;SHT30;63319;46.046;17.802;2023-09-18T00:00:46;27.83;50.05
74792;SHT30;63319;46.046;17.802;2023-09-18T00:03:56;27.83;49.98
74792;SHT30;63319;46.046;17.802;2023-09-18T00:07:01;27.83;49.94
74792;SHT30;63319;46.046;17.802;2023-09-18T00:10:04;27.80;50.07
74792;SHT30;63319;46.046;17.802;2023-09-18T00:13:08;27.80;50.11
74792;SHT30;63319;46.046;17.802;2023-09-18T00:16:11;27.80;49.99
74792;SHT30;63319;46.046;17.802;2023-09-18T00:19:16;27.82;50.08
74792;SHT30;63319;46.046;17.802;2023-09-18T00:22:19;27.80;50.12
74792;SHT30;63319;46.046;17.802;2023-09-18T00:25:23;27.74;50.09
74792;SHT30;63319;46.046;17.802;2023-09-18T00:28:26;27.77;50.17
74792;SHT30;63319;46.046;17.802;2023-09-18T00:31:29;27.77;50.08
74792;SHT30;63319;46.046;17.802;2023-09-18T00:34:35;27.76;50.02
74792;SHT30;63319;46.046;17.802;2023-09-18T00:37:38;27.76;50.10
74792;SHT30;63319;46.046;17.802;2023-09-18T00:40:42;27.74;49.98
74792;SHT30;63319;46.046;17.802;2023-09-18T00:43:46;27.74;50.12
74792;SHT30;63319;46.046;17.802;2023-09-18T00:46:51;27.73;50.21
74792;SHT30;63319;46.046;17.802;2023-09-18T00:49:58;27.73;50.24
74792;SHT30;63319;46.046;17.802;2023-09-18T00:53:01;27.73;49.76
74792;SHT30;63319;46.046;17.802;2023-09-18T00:56:04;27.71;50.22
74792;SHT30;63319;46.046;17.802;2023-09-18T00:59:09;27.71;50.14
74792;SHT30;63319;46.046;17.802;2023-09-18T01:02:13;27.71;50.27
74792;SHT30;63319;46.046;17.802;2023-09-18T01:05:17;27.71;50.19
74792;SHT30;63319;46.046;17.802;2023-09-18T01:08:20;27.70;50.23
74792;SHT30;63319;46.046;17.802;2023-09-18T01:18:11;27.67;50.19
74792;SHT30;63319;46.046;17.802;2023-09-18T01:21:14;27.69;50.31
74792;SHT30;63319;46.046;17.802;2023-09-18T01:24:17;27.66;50.31
74792;SHT30;63319;46.046;17.802;2023-09-18T01:27:20;27.69;50.33
74792;SHT30;63319;46.046;17.802;2023-09-18T01:30:24;27.67;50.32
74792;SHT30;63319;46.046;17.802;2023-09-18T01:33:28;27.63;50.35
74792;SHT30;63319;46.046;17.802;2023-09-18T01:36:32;27.65;50.28
74792;SHT30;63319;46.046;17.802;2023-09-18T01:39:36;27.63;50.25
74792;SHT30;63319;46.046;17.802;2023-09-18T01:42:39;27.65;50.33
74792;SHT30;63319;46.046;17.802;2023-09-18T01:45:43;27.65;50.29
74792;SHT30;63319;46.046;17.802;2023-09-18T01:48:46;27.65;50.26
74792;SHT30;63319;46.046;17.802;2023-09-18T01:51:50;27.62;50.41
74792;SHT30;63319;46.046;17.802;2023-09-18T01:54:53;27.62;50.25
74792;SHT30;63319;46.046;17.802;2023-09-18T01:57:56;27.59;50.27
74792;SHT30;63319;46.046;17.802;2023-09-18T02:01:00;27.63;50.18
74792;SHT30;63319;46.046;17.802;2023-09-18T02:04:05;27.60;50.43
74792;SHT30;63319;46.046;17.802;2023-09-18T02:07:28;27.62;50.14
74792;SHT30;63319;46.046;17.802;2023-09-18T02:10:32;27.60;50.06
74792;SHT30;63319;46.046;17.802;2023-09-18T02:13:35;27.62;50.23
74792;SHT30;63319;46.046;17.802;2023-09-18T02:16:40;27.60;50.38
74792;SHT30;63319;46.046;17.802;2023-09-18T02:19:46;27.60;50.36
74792;SHT30;63319;46.046;17.802;2023-09-18T02:22:49;27.58;50.39
74792;SHT30;63319;46.046;17.802;2023-09-18T02:25:56;27.60;50.44
74792;SHT30;63319;46.046;17.802;2023-09-18T02:29:07;27.56;50.40
74792;SHT30;63319;46.046;17.802;2023-09-18T02:32:16;27.58;50.38
74792;SHT30;63319;46.046;17.802;2023-09-18T02:35:26;27.58;50.48
74792;SHT30;63319;46.046;17.802;2023-09-18T02:38:29;27.58;50.41
74792;SHT30;63319;46.046;17.802;2023-09-18T02:41:33;27.58;50.29
74792;SHT30;63319;46.046;17.802;2023-09-18T02:44:36;27.53;50.32
74792;SHT30;63319;46.046;17.802;2023-09-18T02:47:40;27.53;50.40
74792;SHT30;63319;46.046;17.802;2023-09-18T02:50:45;27.55;50.35
74792;SHT30;63319;46.046;17.802;2023-09-18T02:53:48;27.53;50.25
74792;SHT30;63319;46.046;17.802;2023-09-18T02:56:51;27.53;50.45
74792;SHT30;63319;46.046;17.802;2023-09-18T02:59:54;27.52;50.41
74792;SHT30;63319;46.046;17.802;2023-09-18T03:02:58;27.52;50.37
74792;SHT30;63319;46.046;17.802;2023-09-18T03:06:03;27.52;50.46
74792;SHT30;63319;46.046;17.802;2023-09-18T03:09:06;27.53;50.37
74792;SHT30;63319;46.046;17.802;2023-09-18T03:12:09;27.52;50.46
74792;SHT30;63319;46.046;17.802;2023-09-18T03:15:13;27.49;50.16
74792;SHT30;63319;46.046;17.802;2023-09-18T03:18:17;27.49;50.21
74792;SHT30;63319;46.046;17.802;2023-09-18T03:21:20;27.49;50.47
74792;SHT30;63319;46.046;17.802;2023-09-18T03:24:23;27.49;50.36
74792;SHT30;63319;46.046;17.802;2023-09-18T03:27:27;27.46;50.32
74792;SHT30;63319;46.046;17.802;2023-09-18T03:30:33;27.48;50.17
74792;SHT30;63319;46.046;17.802;2023-09-18T03:33:42;27.49;50.48
74792;SHT30;63319;46.046;17.802;2023-09-18T03:36:46;27.46;50.37
74792;SHT30;63319;46.046;17.802;2023-09-18T03:39:49;27.46;50.25
74792;SHT30;63319;46.046;17.802;2023-09-18T03:42:52;27.48;50.41
74792;SHT30;63319;46.046;17.802;2023-09-18T03:46:03;27.43;50.65
74792;SHT30;63319;46.046;17.802;2023-09-18T03:49:10;27.45;50.67
74792;SHT30;63319;46.046;17.802;2023-09-18T03:52:13;27.45;50.65
74792;SHT30;63319;46.046;17.802;2023-09-18T03:55:16;27.46;50.64
74792;SHT30;63319;46.046;17.802;2023-09-18T03:58:20;27.42;50.69
74792;SHT30;63319;46.046;17.802;2023-09-18T04:01:23;27.42;50.75
74792;SHT30;63319;46.046;17.802;2023-09-18T04:04:27;27.43;50.72
74792;SHT30;63319;46.046;17.802;2023-09-18T04:07:31;27.42;50.69
74792;SHT30;63319;46.046;17.802;2023-09-18T04:10:35;27.41;50.74
74792;SHT30;63319;46.046;17.802;2023-09-18T04:13:39;27.41;50.68
74792;SHT30;63319;46.046;17.802;2023-09-18T04:16:42;27.42;50.77
74792;SHT30;63319;46.046;17.802;2023-09-18T04:19:45;27.41;50.81
74792;SHT30;63319;46.046;17.802;2023-09-18T04:23:18;27.41;50.77
74792;SHT30;63319;46.046;17.802;2023-09-18T04:26:25;27.39;50.70
74792;SHT30;63319;46.046;17.802;2023-09-18T04:29:33;27.38;50.84
74792;SHT30;63319;46.046;17.802;2023-09-18T04:32:37;27.41;50.82
74792;SHT30;63319;46.046;17.802;2023-09-18T04:35:41;27.39;50.75
74792;SHT30;63319;46.046;17.802;2023-09-18T04:38:47;27.38;50.78
74792;SHT30;63319;46.046;17.802;2023-09-18T04:41:51;27.38;50.83
74792;SHT30;63319;46.046;17.802;2023-09-18T04:44:54;27.38;50.78
74792;SHT30;63319;46.046;17.802;2023-09-18T04:47:58;27.38;50.72
74792;SHT30;63319;46.046;17.802;2023-09-18T04:51:03;27.39;50.67
74792;SHT30;63319;46.046;17.802;2023-09-18T04:54:07;27.38;50.78
74792;SHT30;63319;46.046;17.802;2023-09-18T04:57:10;27.37;50.74
74792;SHT30;63319;46.046;17.802;2023-09-18T05:00:14;27.37;50.77
74792;SHT30;63319;46.046;17.802;2023-09-18T05:03:21;27.38;50.40
74792;SHT30;63319;46.046;17.802;2023-09-18T05:06:24;27.39;50.48
74792;SHT30;63319;46.046;17.802;2023-09-18T05:09:27;27.39;50.28
74792;SHT30;63319;46.046;17.802;2023-09-18T05:12:31;27.41;50.64
74792;SHT30;63319;46.046;17.802;2023-09-18T05:15:35;27.42;50.66
74792;SHT30;63319;46.046;17.802;2023-09-18T05:18:39;27.41;50.60
74792;SHT30;63319;46.046;17.802;2023-09-18T05:21:43;27.35;50.41
74792;SHT30;63319;46.046;17.802;2023-09-18T05:24:47;27.32;50.29
74792;SHT30;63319;46.046;17.802;2023-09-18T05:27:50;27.31;49.99
74792;SHT30;63319;46.046;17.802;2023-09-18T05:30:58;27.27;50.00
74792;SHT30;63319;46.046;17.802;2023-09-18T05:34:01;27.25;50.05
74792;SHT30;63319;46.046;17.802;2023-09-18T05:37:04;27.27;49.97
74792;SHT30;63319;46.046;17.802;2023-09-18T05:40:09;27.24;50.02
74792;SHT30;63319;46.046;17.802;2023-09-18T05:43:14;27.21;50.14
74792;SHT30;63319;46.046;17.802;2023-09-18T05:46:17;27.21;50.27
74792;SHT30;63319;46.046;17.802;2023-09-18T05:49:21;27.16;50.41
74792;SHT30;63319;46.046;17.802;2023-09-18T05:52:25;27.20;50.47
74792;SHT30;63319;46.046;17.802;2023-09-18T05:55:31;27.00;51.30
74792;SHT30;63319;46.046;17.802;2023-09-18T05:58:35;26.95;51.56
74792;SHT30;63319;46.046;17.802;2023-09-18T06:02:04;26.87;51.88
74792;SHT30;63319;46.046;17.802;2023-09-18T06:05:08;26.70;52.44
74792;SHT30;63319;46.046;17.802;2023-09-18T06:08:14;26.53;53.05
74792;SHT30;63319;46.046;17.802;2023-09-18T06:11:19;26.60;52.86
74792;SHT30;63319;46.046;17.802;2023-09-18T06:14:23;26.59;53.01
74792;SHT30;63319;46.046;17.802;2023-09-18T06:17:26;26.53;53.28
74792;SHT30;63319;46.046;17.802;2023-09-18T06:20:29;26.64;53.19
74792;SHT30;63319;46.046;17.802;2023-09-18T06:23:32;26.70;52.90
74792;SHT30;63319;46.046;17.802;2023-09-18T06:26:36;26.77;52.79
74792;SHT30;63319;46.046;17.802;2023-09-18T06:29:39;26.86;52.55
74792;SHT30;63319;46.046;17.802;2023-09-18T06:32:44;26.86;52.28
74792;SHT30;63319;46.046;17.802;2023-09-18T06:35:48;26.87;52.43
74792;SHT30;63319;46.046;17.802;2023-09-18T06:38:51;26.94;52.32
74792;SHT30;63319;46.046;17.802;2023-09-18T06:41:54;26.97;52.00
74792;SHT30;63319;46.046;17.802;2023-09-18T06:44:59;26.93;52.06
74792;SHT30;63319;46.046;17.802;2023-09-18T06:48:02;27.04;51.86
74792;SHT30;63319;46.046;17.802;2023-09-18T06:51:06;27.04;51.74
74792;SHT30;63319;46.046;17.802;2023-09-18T06:54:10;27.11;51.67
74792;SHT30;63319;46.046;17.802;2023-09-18T06:57:14;27.10;51.76
74792;SHT30;63319;46.046;17.802;2023-09-18T07:00:18;27.10;51.81
74792;SHT30;63319;46.046;17.802;2023-09-18T07:03:24;27.27;51.42
74792;SHT30;63319;46.046;17.802;2023-09-18T07:06:31;27.29;51.27
74792;SHT30;63319;46.046;17.802;2023-09-18T07:09:34;27.29;51.50
74792;SHT30;63319;46.046;17.802;2023-09-18T07:12:48;27.63;50.85
74792;SHT30;63319;46.046;17.802;2023-09-18T07:15:55;27.86;50.54
74792;SHT30;63319;46.046;17.802;2023-09-18T07:19:02;28.00;50.35
74792;SHT30;63319;46.046;17.802;2023-09-18T07:22:08;28.18;50.07
74792;SHT30;63319;46.046;17.802;2023-09-18T07:25:12;28.34;49.47
74792;SHT30;63319;46.046;17.802;2023-09-18T07:28:16;28.51;49.13
74792;SHT30;63319;46.046;17.802;2023-09-18T07:31:21;28.51;49.11
74792;SHT30;63319;46.046;17.802;2023-09-18T07:34:24;28.68;48.83
74792;SHT30;63319;46.046;17.802;2023-09-18T07:37:28;28.78;48.58
74792;SHT30;63319;46.046;17.802;2023-09-18T07:40:32;28.86;48.44
74792;SHT30;63319;46.046;17.802;2023-09-18T07:43:34;29.04;48.48
74792;SHT30;63319;46.046;17.802;2023-09-18T07:46:37;29.13;48.12
74792;SHT30;63319;46.046;17.802;2023-09-18T07:49:41;29.29;47.90
74792;SHT30;63319;46.046;17.802;2023-09-18T07:52:45;29.38;47.81
74792;SHT30;63319;46.046;17.802;2023-09-18T07:56:04;29.49;47.48
74792;SHT30;63319;46.046;17.802;2023-09-18T07:59:08;29.54;47.61
74792;SHT30;63319;46.046;17.802;2023-09-18T08:02:13;29.65;47.48
74792;SHT30;63319;46.046;17.802;2023-09-18T08:05:17;29.74;47.12
74792;SHT30;63319;46.046;17.802;2023-09-18T08:08:21;29.79;46.63
74792;SHT30;63319;46.046;17.802;2023-09-18T08:11:25;29.89;46.58
74792;SHT30;63319;46.046;17.802;2023-09-18T08:14:28;29.99;46.55
74792;SHT30;63319;46.046;17.802;2023-09-18T08:17:31;30.15;46.10
74792;SHT30;63319;46.046;17.802;2023-09-18T08:20:35;30.18;46.29
74792;SHT30;63319;46.046;17.802;2023-09-18T08:23:40;30.23;46.10
74792;SHT30;63319;46.046;17.802;2023-09-18T08:26:43;30.19;46.39
74792;SHT30;63319;46.046;17.802;2023-09-18T08:29:46;30.13;46.45
74792;SHT30;63319;46.046;17.802;2023-09-18T08:32:49;30.32;45.71
74792;SHT30;63319;46.046;17.802;2023-09-18T08:35:54;30.29;46.03
74792;SHT30;63319;46.046;17.802;2023-09-18T08:38:57;30.48;45.55
74792;SHT30;63319;46.046;17.802;2023-09-18T08:42:07;30.55;45.59
74792;SHT30;63319;46.046;17.802;2023-09-18T08:45:19;30.47;45.68
74792;SHT30;63319;46.046;17.802;2023-09-18T08:48:25;30.52;45.49
74792;SHT30;63319;46.046;17.802;2023-09-18T08:51:30;30.59;45.42
74792;SHT30;63319;46.046;17.802;2023-09-18T08:54:35;30.53;45.52
74792;SHT30;63319;46.046;17.802;2023-09-18T08:57:39;30.59;45.23
74792;SHT30;63319;46.046;17.802;2023-09-18T09:00:43;30.67;45.13
74792;SHT30;63319;46.046;17.802;2023-09-18T09:03:46;30.64;45.11
74792;SHT30;63319;46.046;17.802;2023-09-18T09:06:49;30.90;44.63
74792;SHT30;63319;46.046;17.802;2023-09-18T09:09:52;30.87;44.73
74792;SHT30;63319;46.046;17.802;2023-09-18T09:12:58;30.95;44.56
74792;SHT30;63319;46.046;17.802;2023-09-18T09:16:02;30.94;44.61
74792;SHT30;63319;46.046;17.802;2023-09-18T09:19:05;30.99;44.46
74792;SHT30;63319;46.046;17.802;2023-09-18T09:22:09;31.12;44.18
74792;SHT30;63319;46.046;17.802;2023-09-18T09:25:31;31.11;44.27
74792;SHT30;63319;46.046;17.802;2023-09-18T09:28:34;31.14;44.27
74792;SHT30;63319;46.046;17.802;2023-09-18T09:31:38;31.16;44.03
74792;SHT30;63319;46.046;17.802;2023-09-18T09:34:41;31.18;44.00
74792;SHT30;63319;46.046;17.802;2023-09-18T09:37:44;31.33;43.71
74792;SHT30;63319;46.046;17.802;2023-09-18T09:40:47;31.36;43.69
74792;SHT30;63319;46.046;17.802;2023-09-18T09:43:51;31.42;43.70
74792;SHT30;63319;46.046;17.802;2023-09-18T09:46:54;31.46;43.39
74792;SHT30;63319;46.046;17.802;2023-09-18T09:49:58;31.47;43.39
74792;SHT30;63319;46.046;17.802;2023-09-18T09:53:01;31.53;43.19
74792;SHT30;63319;46.046;17.802;2023-09-18T09:56:04;31.56;43.22
74792;SHT30;63319;46.046;17.802;2023-09-18T09:59:08;31.63;42.95
74792;SHT30;63319;46.046;17.802;2023-09-18T10:02:14;31.67;43.02
74792;SHT30;63319;46.046;17.802;2023-09-18T10:05:26;31.69;42.97
74792;SHT30;63319;46.046;17.802;2023-09-18T10:08:33;31.72;42.90
74792;SHT30;63319;46.046;17.802;2023-09-18T10:11:45;31.77;42.85
74792;SHT30;63319;46.046;17.802;2023-09-18T10:14:52;31.79;43.02
74792;SHT30;63319;46.046;17.802;2023-09-18T10:18:18;31.86;42.77
74792;SHT30;63319;46.046;17.802;2023-09-18T10:25:15;31.96;42.58
74792;SHT30;63319;46.046;17.802;2023-09-18T10:28:23;32.03;42.37
74792;SHT30;63319;46.046;17.802;2023-09-18T10:31:27;32.14;42.10
74792;SHT30;63319;46.046;17.802;2023-09-18T10:34:31;32.17;42.08
74792;SHT30;63319;46.046;17.802;2023-09-18T10:37:37;32.25;42.08
74792;SHT30;63319;46.046;17.802;2023-09-18T10:40:47;32.34;41.97
74792;SHT30;63319;46.046;17.802;2023-09-18T10:43:53;32.34;42.13
74792;SHT30;63319;46.046;17.802;2023-09-18T10:47:00;32.41;41.84
74792;SHT30;63319;46.046;17.802;2023-09-18T10:50:23;32.41;41.49
74792;SHT30;63319;46.046;17.802;2023-09-18T10:53:38;32.38;41.31
74792;SHT30;63319;46.046;17.802;2023-09-18T10:56:44;32.45;41.36
74792;SHT30;63319;46.046;17.802;2023-09-18T10:59:47;32.39;41.32
74792;SHT30;63319;46.046;17.802;2023-09-18T11:03:10;32.49;41.24
74792;SHT30;63319;46.046;17.802;2023-09-18T11:06:15;32.47;41.19
74792;SHT30;63319;46.046;17.802;2023-09-18T11:09:26;32.51;40.92
74792;SHT30;63319;46.046;17.802;2023-09-18T11:12:45;32.58;40.97
74792;SHT30;63319;46.046;17.802;2023-09-18T11:15:49;32.47;40.87
74792;SHT30;63319;46.046;17.802;2023-09-18T11:22:07;32.61;40.96
74792;SHT30;63319;46.046;17.802;2023-09-18T11:28:47;32.61;40.77
74792;SHT30;63319;46.046;17.802;2023-09-18T11:31:54;32.65;40.82
74792;SHT30;63319;46.046;17.802;2023-09-18T11:35:06;32.64;40.83
74792;SHT30;63319;46.046;17.802;2023-09-18T11:38:10;32.61;40.74
74792;SHT30;63319;46.046;17.802;2023-09-18T11:41:24;32.59;40.93
74792;SHT30;63319;46.046;17.802;2023-09-18T11:47:31;32.61;40.91
74792;SHT30;63319;46.046;17.802;2023-09-18T11:50:35;32.52;40.92
74792;SHT30;63319;46.046;17.802;2023-09-18T11:53:40;32.44;41.02
74792;SHT30;63319;46.046;17.802;2023-09-18T11:56:45;32.34;41.20
74792;SHT30;63319;46.046;17.802;2023-09-18T11:59:48;32.34;41.06
74792;SHT30;63319;46.046;17.802;2023-09-18T12:02:53;32.23;41.29
74792;SHT30;63319;46.046;17.802;2023-09-18T12:06:01;32.14;41.63
74792;SHT30;63319;46.046;17.802;2023-09-18T12:09:08;32.01;41.57
74792;SHT30;63319;46.046;17.802;2023-09-18T12:12:14;32.01;41.74
74792;SHT30;63319;46.046;17.802;2023-09-18T12:15:21;31.90;41.74
74792;SHT30;63319;46.046;17.802;2023-09-18T12:18:26;31.91;42.07
74792;SHT30;63319;46.046;17.802;2023-09-18T12:21:33;31.79;42.32
74792;SHT30;63319;46.046;17.802;2023-09-18T12:24:43;31.74;42.43
74792;SHT30;63319;46.046;17.802;2023-09-18T12:27:54;31.69;42.63
74792;SHT30;63319;46.046;17.802;2023-09-18T12:30:58;31.70;42.80
74792;SHT30;63319;46.046;17.802;2023-09-18T12:37:42;31.66;43.14
74792;SHT30;63319;46.046;17.802;2023-09-18T12:40:45;31.65;43.16
74792;SHT30;63319;46.046;17.802;2023-09-18T12:43:55;31.59;43.33
74792;SHT30;63319;46.046;17.802;2023-09-18T12:47:05;31.53;43.26
74792;SHT30;63319;46.046;17.802;2023-09-18T12:50:13;31.53;43.43
74792;SHT30;63319;46.046;17.802;2023-09-18T12:53:22;31.50;43.37
74792;SHT30;63319;46.046;17.802;2023-09-18T12:56:25;31.43;43.61
74792;SHT30;63319;46.046;17.802;2023-09-18T12:59:31;31.45;43.68
74792;SHT30;63319;46.046;17.802;2023-09-18T13:02:34;31.43;43.89
74792;SHT30;63319;46.046;17.802;2023-09-18T13:05:38;31.33;43.94
74792;SHT30;63319;46.046;17.802;2023-09-18T13:08:42;31.28;43.93
74792;SHT30;63319;46.046;17.802;2023-09-18T13:11:58;31.26;44.10
74792;SHT30;63319;46.046;17.802;2023-09-18T13:15:02;31.21;43.95
74792;SHT30;63319;46.046;17.802;2023-09-18T13:18:12;31.18;44.04
74792;SHT30;63319;46.046;17.802;2023-09-18T13:21:15;31.14;44.23
74792;SHT30;63319;46.046;17.802;2023-09-18T13:24:29;31.15;44.00
74792;SHT30;63319;46.046;17.802;2023-09-18T13:27:33;31.15;44.08
74792;SHT30;63319;46.046;17.802;2023-09-18T13:30:38;31.10;44.09
74792;SHT30;63319;46.046;17.802;2023-09-18T13:33:44;31.04;44.18
74792;SHT30;63319;46.046;17.802;2023-09-18T13:37:03;31.04;44.30
74792;SHT30;63319;46.046;17.802;2023-09-18T13:40:18;30.96;44.63
74792;SHT30;63319;46.046;17.802;2023-09-18T13:43:28;30.96;44.63
74792;SHT30;63319;46.046;17.802;2023-09-18T13:47:20;30.90;44.80
74792;SHT30;63319;46.046;17.802;2023-09-18T13:50:39;30.83;44.85
74792;SHT30;63319;46.046;17.802;2023-09-18T13:53:50;30.84;44.84
74792;SHT30;63319;46.046;17.802;2023-09-18T13:57:35;30.84;44.99
74792;SHT30;63319;46.046;17.802;2023-09-18T14:01:01;30.83;45.08
74792;SHT30;63319;46.046;17.802;2023-09-18T14:04:04;30.80;45.40
74792;SHT30;63319;46.046;17.802;2023-09-18T14:07:09;30.76;45.48
74792;SHT30;63319;46.046;17.802;2023-09-18T14:10:30;30.70;45.31
74792;SHT30;63319;46.046;17.802;2023-09-18T14:13:35;30.73;45.46
74792;SHT30;63319;46.046;17.802;2023-09-18T14:16:39;30.70;45.42
74792;SHT30;63319;46.046;17.802;2023-09-18T14:19:42;30.67;45.58
74792;SHT30;63319;46.046;17.802;2023-09-18T14:22:46;30.66;45.63
74792;SHT30;63319;46.046;17.802;2023-09-18T14:25:53;30.64;45.64
74792;SHT30;63319;46.046;17.802;2023-09-18T14:28:57;30.64;45.74
74792;SHT30;63319;46.046;17.802;2023-09-18T14:32:00;30.63;45.85
74792;SHT30;63319;46.046;17.802;2023-09-18T14:35:06;30.56;45.95
74792;SHT30;63319;46.046;17.802;2023-09-18T14:38:19;30.56;46.08
74792;SHT30;63319;46.046;17.802;2023-09-18T14:41:30;30.47;46.34
74792;SHT30;63319;46.046;17.802;2023-09-18T14:44:34;30.47;46.36
74792;SHT30;63319;46.046;17.802;2023-09-18T14:47:37;30.46;46.45
74792;SHT30;63319;46.046;17.802;2023-09-18T14:50:42;30.39;46.66
74792;SHT30;63319;46.046;17.802;2023-09-18T14:53:52;30.36;46.53
74792;SHT30;63319;46.046;17.802;2023-09-18T14:56:57;30.36;46.57
74792;SHT30;63319;46.046;17.802;2023-09-18T15:00:02;30.30;46.67
74792;SHT30;63319;46.046;17.802;2023-09-18T15:03:09;30.29;46.70
74792;SHT30;63319;46.046;17.802;2023-09-18T15:06:12;30.18;47.08
74792;SHT30;63319;46.046;17.802;2023-09-18T15:09:18;30.15;47.19
74792;SHT30;63319;46.046;17.802;2023-09-18T15:12:21;30.09;46.64
74792;SHT30;63319;46.046;17.802;2023-09-18T15:15:25;30.05;46.41
74792;SHT30;63319;46.046;17.802;2023-09-18T15:18:29;29.97;45.76
74792;SHT30;63319;46.046;17.802;2023-09-18T15:21:32;29.93;45.82
74792;SHT30;63319;46.046;17.802;2023-09-18T15:24:39;29.89;45.61
74792;SHT30;63319;46.046;17.802;2023-09-18T15:27:42;29.85;45.49
74792;SHT30;63319;46.046;17.802;2023-09-18T15:30:46;29.84;45.68
74792;SHT30;63319;46.046;17.802;2023-09-18T15:33:55;29.81;45.80
74792;SHT30;63319;46.046;17.802;2023-09-18T15:36:59;29.79;63.12
74792;SHT30;63319;46.046;17.802;2023-09-18T15:40:08;29.60;49.26
74792;SHT30;63319;46.046;17.802;2023-09-18T15:43:14;29.51;48.37
74792;SHT30;63319;46.046;17.802;2023-09-18T15:46:17;29.53;48.33
74792;SHT30;63319;46.046;17.802;2023-09-18T15:49:22;29.58;49.96
74792;SHT30;63319;46.046;17.802;2023-09-18T15:52:26;29.60;51.38
74792;SHT30;63319;46.046;17.802;2023-09-18T15:55:29;29.65;52.02
74792;SHT30;63319;46.046;17.802;2023-09-18T15:58:33;29.65;52.43
74792;SHT30;63319;46.046;17.802;2023-09-18T16:01:39;29.65;52.81
74792;SHT30;63319;46.046;17.802;2023-09-18T16:04:47;29.64;51.81
74792;SHT30;63319;46.046;17.802;2023-09-18T16:07:52;29.67;51.82
74792;SHT30;63319;46.046;17.802;2023-09-18T16:11:07;29.64;51.86
74792;SHT30;63319;46.046;17.802;2023-09-18T16:14:11;29.65;51.78
74792;SHT30;63319;46.046;17.802;2023-09-18T16:17:18;29.61;51.84
74792;SHT30;63319;46.046;17.802;2023-09-18T16:20:22;29.61;51.60
74792;SHT30;63319;46.046;17.802;2023-09-18T16:23:26;29.65;51.57
74792;SHT30;63319;46.046;17.802;2023-09-18T16:26:30;29.61;51.39
74792;SHT30;63319;46.046;17.802;2023-09-18T16:29:36;29.60;51.39
74792;SHT30;63319;46.046;17.802;2023-09-18T16:32:41;29.55;51.57
74792;SHT30;63319;46.046;17.802;2023-09-18T16:35:45;29.58;51.24
74792;SHT30;63319;46.046;17.802;2023-09-18T16:38:50;29.55;51.28
74792;SHT30;63319;46.046;17.802;2023-09-18T16:41:54;29.54;51.18
74792;SHT30;63319;46.046;17.802;2023-09-18T16:44:57;29.54;51.22
74792;SHT30;63319;46.046;17.802;2023-09-18T16:48:03;29.50;51.24
74792;SHT30;63319;46.046;17.802;2023-09-18T16:51:09;29.50;51.39
74792;SHT30;63319;46.046;17.802;2023-09-18T16:54:13;29.53;51.33
74792;SHT30;63319;46.046;17.802;2023-09-18T16:57:20;29.47;51.31
74792;SHT30;63319;46.046;17.802;2023-09-18T17:00:24;29.44;51.29
74792;SHT30;63319;46.046;17.802;2023-09-18T17:03:33;29.44;51.24
74792;SHT30;63319;46.046;17.802;2023-09-18T17:06:42;29.44;51.08
74792;SHT30;63319;46.046;17.802;2023-09-18T17:09:47;29.43;51.28
74792;SHT30;63319;46.046;17.802;2023-09-18T17:12:52;29.40;51.44
74792;SHT30;63319;46.046;17.802;2023-09-18T17:15:58;29.41;50.97
74792;SHT30;63319;46.046;17.802;2023-09-18T17:19:04;29.37;51.18
74792;SHT30;63319;46.046;17.802;2023-09-18T17:22:10;29.35;51.01
74792;SHT30;63319;46.046;17.802;2023-09-18T17:25:16;29.35;51.08
74792;SHT30;63319;46.046;17.802;2023-09-18T17:28:23;29.35;51.18
74792;SHT30;63319;46.046;17.802;2023-09-18T17:31:34;29.31;51.16
74792;SHT30;63319;46.046;17.802;2023-09-18T17:34:39;29.34;51.07
74792;SHT30;63319;46.046;17.802;2023-09-18T17:37:49;29.31;51.12
74792;SHT30;63319;46.046;17.802;2023-09-18T17:40:56;29.29;51.06
74792;SHT30;63319;46.046;17.802;2023-09-18T17:44:01;29.30;51.13
74792;SHT30;63319;46.046;17.802;2023-09-18T17:47:07;29.26;51.08
74792;SHT30;63319;46.046;17.802;2023-09-18T17:50:19;29.24;51.15
74792;SHT30;63319;46.046;17.802;2023-09-18T17:53:33;29.26;51.14
74792;SHT30;63319;46.046;17.802;2023-09-18T17:56:39;29.24;51.00
74792;SHT30;63319;46.046;17.802;2023-09-18T17:59:47;29.22;51.06
74792;SHT30;63319;46.046;17.802;2023-09-18T18:02:54;29.20;50.79
74792;SHT30;63319;46.046;17.802;2023-09-18T18:05:59;29.20;50.97
74792;SHT30;63319;46.046;17.802;2023-09-18T18:09:03;29.19;50.86
74792;SHT30;63319;46.046;17.802;2023-09-18T18:12:09;29.17;50.44
74792;SHT30;63319;46.046;17.802;2023-09-18T18:15:15;29.17;50.71
74792;SHT30;63319;46.046;17.802;2023-09-18T18:18:25;29.16;50.70
74792;SHT30;63319;46.046;17.802;2023-09-18T18:21:30;29.14;50.70
74792;SHT30;63319;46.046;17.802;2023-09-18T18:24:41;29.16;50.61
74792;SHT30;63319;46.046;17.802;2023-09-18T18:27:45;29.12;50.59
74792;SHT30;63319;46.046;17.802;2023-09-18T18:30:50;29.13;50.82
74792;SHT30;63319;46.046;17.802;2023-09-18T18:33:55;29.10;50.69
74792;SHT30;63319;46.046;17.802;2023-09-18T18:37:05;29.10;50.82
74792;SHT30;63319;46.046;17.802;2023-09-18T18:40:09;29.09;50.92
74792;SHT30;63319;46.046;17.802;2023-09-18T18:43:16;29.07;50.90
74792;SHT30;63319;46.046;17.802;2023-09-18T18:46:28;29.07;51.04
74792;SHT30;63319;46.046;17.802;2023-09-18T18:49:32;29.04;51.06
74792;SHT30;63319;46.046;17.802;2023-09-18T18:52:36;29.04;51.06
74792;SHT30;63319;46.046;17.802;2023-09-18T18:55:44;29.03;50.98
74792;SHT30;63319;46.046;17.802;2023-09-18T18:58:48;29.03;51.06
74792;SHT30;63319;46.046;17.802;2023-09-18T19:01:53;28.99;51.16
74792;SHT30;63319;46.046;17.802;2023-09-18T19:04:59;29.00;51.08
74792;SHT30;63319;46.046;17.802;2023-09-18T19:08:04;28.99;50.95
74792;SHT30;63319;46.046;17.802;2023-09-18T19:11:09;28.98;51.01
74792;SHT30;63319;46.046;17.802;2023-09-18T19:14:13;28.98;51.08
74792;SHT30;63319;46.046;17.802;2023-09-18T19:17:18;28.93;51.11
74792;SHT30;63319;46.046;17.802;2023-09-18T19:20:25;28.93;51.15
74792;SHT30;63319;46.046;17.802;2023-09-18T19:23:30;28.95;51.05
74792;SHT30;63319;46.046;17.802;2023-09-18T19:26:35;28.92;50.90
74792;SHT30;63319;46.046;17.802;2023-09-18T19:29:40;28.92;50.71
74792;SHT30;63319;46.046;17.802;2023-09-18T19:32:43;28.89;50.94
74792;SHT30;63319;46.046;17.802;2023-09-18T19:35:48;28.89;50.91
74792;SHT30;63319;46.046;17.802;2023-09-18T19:38:59;28.89;50.99